Time;durP1;ratioP1;P1;durP2;ratioP2;P2;SDS_P1;SDS_P2;PMS_P1;PMS_P2;Temp;Humidity;BMP_temperature;BMP_pressure;BME280_temperature;BME280_humidity;BME280_pressure;Samples;Min_cycle;Max_cycle;Signal;HPM_P1;HPM_P2
2024/01/13 00:01:17;;;;;;;23.25;12.27;;;;;;;1.97;100.00;102825.31;5050242;28;20029;-71
2024/01/13 00:03:42;;;;;;;27.88;13.30;;;;;;;1.98;100.00;102836.69;5048303;28;20075;-71
2024/01/13 00:06:07;;;;;;;22.02;11.57;;;;;;;1.90;100.00;102813.47;5049364;28;20041;-71
2024/01/13 00:08:33;;;;;;;22.05;11.88;;;;;;;2.00;100.00;102821.66;5049653;28;20024;-70
2024/01/13 00:10:59;;;;;;;24.30;10.95;;;;;;;1.95;100.00;102815.84;5049561;28;20094;-70
2024/01/13 00:13:24;;;;;;;23.40;12.48;;;;;;;1.96;100.00;102818.38;5049614;28;20021;-70
2024/01/13 00:15:49;;;;;;;31.45;12.98;;;;;;;1.96;100.00;102818.38;5049539;28;20029;-71
2024/01/13 00:18:17;;;;;;;22.50;11.65;;;;;;;1.94;100.00;102814.16;5049441;28;20029;-70
2024/01/13 00:20:42;;;;;;;25.13;15.10;;;;;;;1.94;100.00;102817.63;5048344;28;20033;-70
2024/01/13 00:23:08;;;;;;;26.15;14.00;;;;;;;1.91;100.00;102812.56;5049476;28;20041;-70
2024/01/13 00:25:33;;;;;;;23.67;12.25;;;;;;;1.94;100.00;102811.50;5049283;28;20035;-70
2024/01/13 00:27:59;;;;;;;25.75;13.40;;;;;;;1.90;100.00;102810.84;5049384;28;20063;-70
2024/01/13 00:30:24;;;;;;;26.92;12.18;;;;;;;1.92;100.00;102808.97;5049599;28;20029;-71
2024/01/13 00:32:49;;;;;;;23.05;12.95;;;;;;;1.93;100.00;102804.53;5052967;28;20484;-70
2024/01/13 00:35:15;;;;;;;27.88;14.90;;;;;;;1.93;100.00;102810.66;5053582;28;20047;-70
2024/01/13 00:37:40;;;;;;;25.20;13.18;;;;;;;1.91;100.00;102796.75;5053395;28;20128;-71
2024/01/13 00:40:07;;;;;;;23.33;12.32;;;;;;;1.91;100.00;102798.53;5052160;28;20037;-70
2024/01/13 00:42:32;;;;;;;24.88;13.32;;;;;;;1.91;100.00;102799.38;5053371;28;20045;-70
2024/01/13 00:44:57;;;;;;;25.15;13.55;;;;;;;1.90;100.00;102795.03;5053513;28;20063;-71
2024/01/13 00:47:23;;;;;;;28.80;14.55;;;;;;;1.90;100.00;102786.31;5053448;28;20105;-70
2024/01/13 00:49:48;;;;;;;26.10;13.63;;;;;;;1.84;100.00;102779.63;5053350;28;20472;-70
2024/01/13 00:52:13;;;;;;;24.48;13.68;;;;;;;1.91;100.00;102780.97;5051966;28;20068;-70
2024/01/13 00:54:42;;;;;;;24.67;13.52;;;;;;;1.87;100.00;102774.19;5053245;28;20580;-70
2024/01/13 00:57:08;;;;;;;28.10;14.05;;;;;;;1.89;100.00;102780.22;5053153;28;20035;-70
2024/01/13 00:59:33;;;;;;;38.22;15.63;;;;;;;1.88;100.00;102770.59;5053145;28;20434;-70
2024/01/13 01:01:58;;;;;;;24.25;14.38;;;;;;;1.88;100.00;102770.59;5053178;28;20021;-70
2024/01/13 01:04:24;;;;;;;25.42;14.60;;;;;;;1.87;100.00;102765.47;5052920;28;20052;-70
2024/01/13 01:06:49;;;;;;;23.25;12.88;;;;;;;1.89;100.00;102767.06;5051678;28;20108;-70
2024/01/13 01:09:15;;;;;;;26.92;13.98;;;;;;;1.89;100.00;102776.75;5052984;28;20053;-70
2024/01/13 01:11:42;;;;;;;25.35;12.57;;;;;;;1.85;100.00;102762.06;5052960;28;20040;-70
2024/01/13 01:14:08;;;;;;;25.70;14.07;;;;;;;1.83;100.00;102754.25;5052831;28;20045;-70
2024/01/13 01:16:33;;;;;;;26.58;13.32;;;;;;;1.87;100.00;102768.09;5052901;28;20036;-70
2024/01/13 01:18:59;;;;;;;28.17;13.75;;;;;;;1.86;100.00;102754.09;5051425;28;20029;-70
2024/01/13 01:21:24;;;;;;;23.95;13.93;;;;;;;1.87;100.00;102754.94;5052815;28;20090;-70
2024/01/13 01:23:49;;;;;;;24.60;13.35;;;;;;;1.87;100.00;102750.50;5052749;28;20055;-70
2024/01/13 01:26:15;;;;;;;23.88;13.73;;;;;;;1.81;100.00;102742.13;5052732;28;20048;-70
2024/01/13 01:28:40;;;;;;;23.40;13.00;;;;;;;1.89;100.00;102753.06;5052586;28;20063;-70
2024/01/13 01:31:06;;;;;;;27.60;13.48;;;;;;;1.87;100.00;102741.78;5052438;28;20541;-70
2024/01/13 01:33:31;;;;;;;21.85;11.90;;;;;;;1.83;100.00;102738.47;5052511;28;20074;-70
2024/01/13 01:35:57;;;;;;;25.42;14.20;;;;;;;1.85;100.00;102735.75;5052420;28;20021;-71
2024/01/13 01:38:22;;;;;;;31.65;13.02;;;;;;;1.84;100.00;102747.22;5052284;28;20025;-70
2024/01/13 01:40:55;;;;;;;22.88;12.73;;;;;;;1.83;100.00;102737.63;5052250;28;20116;-70
2024/01/13 01:43:21;;;;;;;24.75;12.45;;;;;;;1.80;100.00;102738.66;5051635;28;20025;-70
2024/01/13 01:45:51;;;;;;;25.88;14.10;;;;;;;1.82;100.00;102747.31;5052360;28;20021;-70
2024/01/13 01:48:18;;;;;;;22.75;12.75;;;;;;;1.84;100.00;102739.34;5052279;28;20036;-71
2024/01/13 01:50:44;;;;;;;25.05;13.50;;;;;;;1.79;100.00;102731.72;5052214;28;20035;-70
2024/01/13 01:53:11;;;;;;;23.70;12.75;;;;;;;1.82;100.00;102738.56;5052076;28;20028;-70
2024/01/13 01:55:37;;;;;;;20.92;11.27;;;;;;;1.81;100.00;102734.25;5052248;28;20036;-71
2024/01/13 01:58:04;;;;;;;23.02;11.82;;;;;;;1.81;100.00;102735.09;5051863;28;20044;-70
2024/01/13 02:00:31;;;;;;;24.75;14.48;;;;;;;1.82;100.00;102733.31;5052109;28;20880;-70
2024/01/13 02:02:56;;;;;;;25.42;13.15;;;;;;;1.82;100.00;102735.94;5051952;28;20052;-70
2024/01/13 02:05:22;;;;;;;25.27;14.82;;;;;;;1.83;100.00;102724.47;5051751;28;20408;-70
2024/01/13 02:07:50;;;;;;;24.35;13.43;;;;;;;1.82;100.00;102714.91;5051947;28;20052;-70
2024/01/13 02:10:17;;;;;;;22.30;13.18;;;;;;;1.79;100.00;102710.66;5051875;28;20031;-71
2024/01/13 02:12:43;;;;;;;25.83;13.15;;;;;;;1.80;100.00;102714.16;5051725;28;20075;-70
2024/01/13 02:15:09;;;;;;;22.38;11.45;;;;;;;1.84;100.00;102715.66;5051829;28;20092;-71
2024/01/13 02:17:35;;;;;;;22.73;12.68;;;;;;;1.84;100.00;102707.78;5051593;28;20040;-70
2024/01/13 02:20:04;;;;;;;22.65;12.30;;;;;;;1.85;100.00;102712.91;5051547;28;20059;-71
2024/01/13 02:22:31;;;;;;;23.02;13.68;;;;;;;1.86;100.00;102717.25;5051653;28;20051;-70
2024/01/13 02:24:57;;;;;;;21.85;12.38;;;;;;;1.85;100.00;102704.19;5051507;28;20366;-71
2024/01/13 02:27:22;;;;;;;26.48;13.93;;;;;;;1.83;100.00;102700.78;5051438;28;20054;-71
2024/01/13 02:29:48;;;;;;;24.33;13.45;;;;;;;1.84;100.00;102692.81;5051636;28;20033;-70
2024/01/13 02:32:13;;;;;;;25.48;13.45;;;;;;;1.75;100.00;102685.47;5051409;28;20033;-70
2024/01/13 02:34:38;;;;;;;24.63;14.32;;;;;;;1.80;100.00;102691.31;5051343;28;20037;-70
2024/01/13 02:37:04;;;;;;;24.02;14.15;;;;;;;1.73;100.00;102674.22;5051320;28;20182;-70
2024/01/13 02:39:29;;;;;;;23.05;12.75;;;;;;;1.79;100.00;102675.63;5051234;28;20120;-71
2024/01/13 02:41:54;;;;;;;22.90;11.95;;;;;;;1.78;100.00;102674.75;5051290;28;20082;-71
2024/01/13 02:44:20;;;;;;;22.63;12.95;;;;;;;1.79;100.00;102671.22;5051221;28;20027;-71
2024/01/13 02:46:45;;;;;;;27.40;11.93;;;;;;;1.76;100.00;102671.41;5049769;28;20112;-71
2024/01/13 02:49:11;;;;;;;22.27;13.27;;;;;;;1.75;100.00;102664.44;5051039;28;20415;-71
2024/01/13 02:51:36;;;;;;;22.33;13.00;;;;;;;1.74;100.00;102652.25;5051089;28;20029;-71
2024/01/13 02:54:02;;;;;;;23.30;12.30;;;;;;;1.71;100.00;102648.00;5050868;28;20606;-71
2024/01/13 02:56:27;;;;;;;23.70;12.35;;;;;;;1.74;100.00;102642.56;5048532;28;20040;-71
2024/01/13 02:58:53;;;;;;;23.13;12.57;;;;;;;1.76;100.00;102647.72;5050830;28;20033;-71
2024/01/13 03:01:18;;;;;;;22.88;12.32;;;;;;;1.77;100.00;102644.16;5051009;28;20031;-71
2024/01/13 03:03:44;;;;;;;22.08;13.27;;;;;;;1.76;100.00;102637.22;5050799;28;20511;-71
2024/01/13 03:06:10;;;;;;;22.67;11.45;;;;;;;1.75;100.00;102630.25;5050851;28;20036;-71
2024/01/13 03:08:35;;;;;;;22.45;12.27;;;;;;;1.72;100.00;102627.81;5050786;28;20032;-71
2024/01/13 03:11:01;;;;;;;23.02;13.15;;;;;;;1.73;100.00;102614.56;5050763;28;20044;-71
2024/01/13 03:13:26;;;;;;;23.63;11.50;;;;;;;1.73;100.00;102622.47;5050398;28;20099;-71
2024/01/13 03:15:52;;;;;;;21.23;12.15;;;;;;;1.75;100.00;102622.34;5050584;28;20029;-71
2024/01/13 03:18:17;;;;;;;23.92;12.48;;;;;;;1.71;100.00;102608.56;5050466;28;20029;-71
2024/01/13 03:20:42;;;;;;;24.05;12.23;;;;;;;1.75;100.00;102619.72;5050545;28;20131;-71
2024/01/13 03:23:08;;;;;;;22.50;11.40;;;;;;;1.74;100.00;102607.53;5050370;28;20044;-71
2024/01/13 03:25:33;;;;;;;26.35;13.70;;;;;;;1.75;100.00;102598.69;5050544;28;20040;-71
2024/01/13 03:27:58;;;;;;;24.92;13.43;;;;;;;1.77;100.00;102585.44;5050363;28;20421;-71
2024/01/13 03:30:24;;;;;;;22.35;12.52;;;;;;;1.75;100.00;102591.63;5049073;28;20358;-71
2024/01/13 03:32:49;;;;;;;20.10;11.32;;;;;;;1.76;100.00;102595.13;5050154;28;20021;-71
2024/01/13 03:35:14;;;;;;;25.05;12.82;;;;;;;1.73;100.00;102585.63;5050229;28;20036;-71
2024/01/13 03:37:40;;;;;;;23.00;12.95;;;;;;;1.75;100.00;102583.72;5048932;28;20029;-71
2024/01/13 03:40:08;;;;;;;22.98;11.18;;;;;;;1.76;100.00;102584.59;5050181;28;20037;-71
2024/01/13 03:42:33;;;;;;;20.38;11.80;;;;;;;1.77;100.00;102580.19;5048779;28;20025;-71
2024/01/13 03:44:58;;;;;;;21.67;12.82;;;;;;;1.75;100.00;102570.59;5050196;28;20047;-71
2024/01/13 03:47:24;;;;;;;23.45;12.77;;;;;;;1.74;100.00;102575.97;5050072;28;20093;-71
2024/01/13 03:49:49;;;;;;;24.15;11.93;;;;;;;1.69;100.00;102557.81;5050123;28;20056;-71
2024/01/13 03:52:15;;;;;;;23.70;13.88;;;;;;;1.74;100.00;102562.81;5049940;28;20091;-71
2024/01/13 03:54:41;;;;;;;20.88;11.80;;;;;;;1.77;100.00;102559.97;5049935;28;20025;-71
2024/01/13 03:57:07;;;;;;;22.23;12.73;;;;;;;1.80;100.00;102566.84;5049823;28;20037;-71
2024/01/13 03:59:32;;;;;;;22.67;12.45;;;;;;;1.81;100.00;102560.63;5049740;28;20396;-71
2024/01/13 04:01:57;;;;;;;21.83;12.00;;;;;;;1.83;100.00;102556.09;5050299;28;20064;-71
2024/01/13 04:04:23;;;;;;;20.73;10.48;;;;;;;1.83;100.00;102545.59;5048222;28;20056;-71
2024/01/13 04:06:48;;;;;;;21.48;10.75;;;;;;;1.85;100.00;102549.81;5048093;28;20126;-71
2024/01/13 04:09:14;;;;;;;23.98;11.60;;;;;;;1.86;100.00;102550.66;5049704;28;20035;-71
2024/01/13 04:11:39;;;;;;;18.35;9.30;;;;;;;1.86;100.00;102548.88;5049697;28;20033;-71
2024/01/13 04:14:05;;;;;;;22.10;11.35;;;;;;;1.88;100.00;102538.25;5049580;28;20066;-71
2024/01/13 04:16:30;;;;;;;17.58;9.27;;;;;;;1.85;100.00;102536.66;5049601;28;20385;-71
2024/01/13 04:18:55;;;;;;;18.23;8.55;;;;;;;1.89;100.00;102543.44;5048237;28;20029;-71
2024/01/13 04:21:21;;;;;;;16.73;8.88;;;;;;;1.91;100.00;102540.69;5049673;28;20403;-71
2024/01/13 04:23:46;;;;;;;16.27;8.13;;;;;;;1.91;100.00;102540.69;5049429;28;20389;-71
2024/01/13 04:26:11;;;;;;;16.50;7.93;;;;;;;1.91;100.00;102532.78;5049556;28;20617;-71
2024/01/13 04:28:37;;;;;;;16.77;7.25;;;;;;;1.83;100.00;102514.84;5048058;28;20037;-71
2024/01/13 04:31:02;;;;;;;17.13;7.72;;;;;;;1.94;100.00;102527.34;5049345;28;20025;-71
2024/01/13 04:33:28;;;;;;;15.55;6.88;;;;;;;1.90;100.00;102518.78;5049647;28;20068;-71
2024/01/13 04:35:53;;;;;;;13.25;6.57;;;;;;;1.96;100.00;102528.94;5049517;28;20067;-71
2024/01/13 04:38:18;;;;;;;14.20;6.80;;;;;;;1.95;100.00;102523.75;5048075;28;20029;-71
2024/01/13 04:40:47;;;;;;;14.45;7.35;;;;;;;1.98;100.00;102528.81;5049352;28;20098;-71
2024/01/13 04:43:13;;;;;;;16.38;5.90;;;;;;;1.98;100.00;102527.03;5049309;28;20033;-71
2024/01/13 04:45:38;;;;;;;14.48;6.28;;;;;;;1.94;100.00;102515.03;5049321;28;20029;-71
2024/01/13 04:48:04;;;;;;;16.17;6.30;;;;;;;1.97;100.00;102529.78;5047875;28;20412;-71
2024/01/13 04:50:29;;;;;;;11.27;5.95;;;;;;;2.01;100.00;102520.72;5049355;28;20433;-71
2024/01/13 04:52:54;;;;;;;13.10;5.53;;;;;;;2.01;100.00;102528.63;5049233;28;20029;-71
2024/01/13 04:55:20;;;;;;;10.48;5.28;;;;;;;2.01;100.00;102525.16;5048026;28;20192;-71
2024/01/13 04:57:45;;;;;;;12.75;5.55;;;;;;;2.01;100.00;102514.63;5047604;28;20057;-71
2024/01/13 05:00:11;;;;;;;12.32;5.07;;;;;;;2.02;100.00;102525.06;5047708;28;20048;-71
2024/01/13 05:02:36;;;;;;;10.48;5.15;;;;;;;2.01;100.00;102519.88;5048719;28;20039;-71
2024/01/13 05:05:03;;;;;;;11.15;4.95;;;;;;;2.00;100.00;102521.69;5048960;28;20574;-71
2024/01/13 05:07:29;;;;;;;10.20;4.95;;;;;;;1.99;100.00;102512.09;5049117;28;20041;-71
2024/01/13 05:09:54;;;;;;;9.27;4.78;;;;;;;2.01;100.00;102517.25;5031120;28;20068;-71
2024/01/13 05:12:19;;;;;;;8.65;4.65;;;;;;;1.97;100.00;102516.63;5048912;28;20028;-71
2024/01/13 05:14:46;;;;;;;9.45;4.22;;;;;;;2.00;100.00;102518.22;5047660;28;20029;-71
2024/01/13 05:17:11;;;;;;;7.90;4.30;;;;;;;1.99;100.00;102522.59;5049069;28;20029;-71
2024/01/13 05:19:37;;;;;;;9.20;4.45;;;;;;;1.99;100.00;102522.59;5050655;28;20039;-71
2024/01/13 05:22:02;;;;;;;10.65;4.25;;;;;;;2.01;100.00;102519.88;5052702;28;20391;-71
2024/01/13 05:24:28;;;;;;;8.45;4.15;;;;;;;1.99;100.00;102527.88;5051433;28;20033;-71
2024/01/13 05:26:54;;;;;;;11.43;5.10;;;;;;;1.99;100.00;102522.59;5052607;28;20032;-71
2024/01/13 05:29:19;;;;;;;8.82;4.15;;;;;;;1.98;100.00;102520.94;5051197;28;20445;-71
2024/01/13 05:31:47;;;;;;;10.35;4.97;;;;;;;1.95;100.00;102515.88;5052693;28;20059;-71
2024/01/13 05:34:12;;;;;;;9.43;4.55;;;;;;;1.96;100.00;102507.91;5051121;28;20075;-71
2024/01/13 05:36:38;;;;;;;11.75;5.10;;;;;;;1.95;100.00;102510.63;5051181;28;20033;-71
2024/01/13 05:39:03;;;;;;;12.18;5.03;;;;;;;1.94;100.00;102509.78;5052429;28;20025;-71
2024/01/13 05:41:28;;;;;;;15.27;5.90;;;;;;;1.94;100.00;102511.56;5052373;28;20400;-71
2024/01/13 05:43:54;;;;;;;12.00;6.18;;;;;;;1.87;100.00;102489.22;5052359;28;20070;-71
2024/01/13 05:46:19;;;;;;;12.75;5.88;;;;;;;1.86;100.00;102491.00;5051164;28;20040;-71
2024/01/13 05:48:44;;;;;;;14.15;6.63;;;;;;;1.90;100.00;102486.38;5052411;28;20039;-71
2024/01/13 05:51:10;;;;;;;13.18;7.20;;;;;;;1.94;100.00;102493.16;5052199;28;20043;-71
2024/01/13 05:53:37;;;;;;;14.82;7.53;;;;;;;1.94;100.00;102498.41;5052251;28;20065;-71
2024/01/13 05:56:03;;;;;;;17.27;7.60;;;;;;;1.93;100.00;102500.16;5052396;28;20075;-71
2024/01/13 05:58:29;;;;;;;18.08;8.40;;;;;;;1.94;100.00;102503.69;5051910;28;20039;-71
2024/01/13 06:00:54;;;;;;;15.35;7.15;;;;;;;1.95;100.00;102506.19;5050599;28;20123;-71
2024/01/13 06:03:19;;;;;;;14.73;8.38;;;;;;;1.91;100.00;102494.19;5051892;28;20029;-71
2024/01/13 06:05:45;;;;;;;17.85;9.23;;;;;;;1.94;100.00;102501.88;5050670;28;20029;-71
2024/01/13 06:08:10;;;;;;;13.38;7.00;;;;;;;1.94;100.00;102514.19;5051889;28;20028;-71
2024/01/13 06:10:35;;;;;;;17.48;8.25;;;;;;;1.91;100.00;102498.59;5051779;28;20115;-71
2024/01/13 06:13:01;;;;;;;20.52;9.90;;;;;;;1.93;100.00;102500.16;5051560;28;20063;-71
2024/01/13 06:15:28;;;;;;;21.17;10.80;;;;;;;1.93;100.00;102494.06;5051728;28;20037;-71
2024/01/13 06:17:53;;;;;;;20.50;10.63;;;;;;;1.93;100.00;102481.75;5051455;28;20504;-71
2024/01/13 06:20:19;;;;;;;23.10;11.95;;;;;;;1.92;100.00;102480.09;5051456;28;20040;-71
2024/01/13 06:22:44;;;;;;;24.35;12.82;;;;;;;1.92;100.00;102468.72;5051854;28;20021;-71
2024/01/13 06:25:09;;;;;;;23.77;12.57;;;;;;;1.84;100.00;102444.69;5051352;28;20467;-71
2024/01/13 06:27:35;;;;;;;24.00;12.50;;;;;;;1.89;100.00;102451.34;5051497;28;20029;-70
2024/01/13 06:30:00;;;;;;;24.20;12.52;;;;;;;1.85;100.00;102441.94;5051334;28;20025;-71
2024/01/13 06:32:25;;;;;;;24.25;13.60;;;;;;;1.87;100.00;102433.97;5051259;28;20040;-71
2024/01/13 06:34:51;;;;;;;26.35;13.10;;;;;;;1.87;100.00;102444.50;5051337;28;20032;-71
2024/01/13 06:37:16;;;;;;;27.17;14.30;;;;;;;1.85;100.00;102447.22;5051331;28;20037;-71
2024/01/13 06:39:42;;;;;;;27.10;14.98;;;;;;;1.85;100.00;102455.09;5051263;28;20120;-71
2024/01/13 06:42:08;;;;;;;26.98;15.38;;;;;;;1.77;100.00;102446.88;5049806;28;20044;-71
2024/01/13 06:44:33;;;;;;;29.05;15.02;;;;;;;1.85;100.00;102455.09;5049831;28;20025;-71
2024/01/13 06:47:00;;;;;;;28.05;15.10;;;;;;;1.83;100.00;102448.25;5051095;28;20032;-71
2024/01/13 06:49:26;;;;;;;30.67;16.50;;;;;;;1.86;100.00;102442.78;5051152;28;20035;-71
2024/01/13 06:51:51;;;;;;;30.75;15.50;;;;;;;1.87;100.00;102455.03;5049587;28;20913;-71
2024/01/13 06:54:17;;;;;;;26.08;14.32;;;;;;;1.87;100.00;102429.56;5050942;28;20036;-71
2024/01/13 06:56:42;;;;;;;31.67;17.05;;;;;;;1.86;100.00;102417.34;5050841;28;20496;-71
2024/01/13 06:59:08;;;;;;;32.65;19.20;;;;;;;1.84;100.00;102416.59;5050788;28;20099;-71
2024/01/13 07:01:33;;;;;;;31.15;17.45;;;;;;;1.83;100.00;102412.28;5049673;28;20029;-71
2024/01/13 07:03:59;;;;;;;30.13;16.60;;;;;;;1.83;100.00;102409.63;5050748;28;20048;-71
2024/01/13 07:06:24;;;;;;;28.92;15.55;;;;;;;1.83;100.00;102391.22;5050731;28;20067;-71
2024/01/13 07:08:50;;;;;;;31.50;17.63;;;;;;;1.83;100.00;102387.75;5050645;28;20081;-71
2024/01/13 07:11:15;;;;;;;32.40;18.98;;;;;;;1.77;100.00;102375.84;5050266;28;20079;-71
2024/01/13 07:13:44;;;;;;;33.05;16.35;;;;;;;1.81;100.00;102379.13;5050424;28;20025;-71
2024/01/13 07:16:10;;;;;;;33.13;19.27;;;;;;;1.81;100.00;102372.09;5050427;28;20037;-71
2024/01/13 07:18:35;;;;;;;32.28;18.15;;;;;;;1.70;100.00;102346.50;5050365;28;20158;-71
2024/01/13 07:21:01;;;;;;;33.65;19.38;;;;;;;1.83;100.00;102366.72;5050521;28;20059;-71
2024/01/13 07:23:26;;;;;;;29.92;17.42;;;;;;;1.79;100.00;102373.13;5048971;28;20025;-71
2024/01/13 07:25:52;;;;;;;34.03;19.83;;;;;;;1.85;100.00;102401.66;5050276;28;20818;-71
2024/01/13 07:28:17;;;;;;;34.40;18.98;;;;;;;1.78;100.00;102364.38;5050168;28;20408;-71
2024/01/13 07:30:42;;;;;;;33.78;17.15;;;;;;;1.86;100.00;102366.50;5050412;28;20151;-71
2024/01/13 07:33:08;;;;;;;36.33;19.52;;;;;;;1.84;100.00;102371.88;5048693;28;20039;-71
2024/01/13 07:35:35;;;;;;;35.47;18.35;;;;;;;1.89;100.00;102376.84;5050301;28;20033;-71
2024/01/13 07:38:01;;;;;;;37.58;20.15;;;;;;;1.90;100.00;102381.16;5050127;28;20061;-71
2024/01/13 07:40:26;;;;;;;32.80;17.55;;;;;;;1.89;100.00;102377.69;5048517;28;20067;-70
2024/01/13 07:42:52;;;;;;;33.22;17.98;;;;;;;1.91;100.00;102378.44;5049519;28;20380;-71
2024/01/13 07:45:17;;;;;;;31.02;17.95;;;;;;;1.94;100.00;102382.66;5049886;28;20025;-71
2024/01/13 07:47:43;;;;;;;32.97;18.88;;;;;;;1.93;100.00;102370.41;5049684;28;20071;-70
2024/01/13 07:50:09;;;;;;;38.08;19.88;;;;;;;1.93;100.00;102354.63;5049546;28;20094;-70
2024/01/13 07:52:34;;;;;;;36.90;18.77;;;;;;;1.87;100.00;102347.16;5049726;28;20508;-70
2024/01/13 07:55:00;;;;;;;37.05;20.88;;;;;;;1.95;100.00;102347.50;5049804;28;20029;-71
2024/01/13 07:57:27;;;;;;;32.78;16.83;;;;;;;1.94;100.00;102351.91;5049319;28;20083;-70
2024/01/13 07:59:53;;;;;;;35.45;21.50;;;;;;;1.93;100.00;102357.25;5048986;28;20576;-70
2024/01/13 08:02:18;;;;;;;34.95;19.52;;;;;;;1.96;100.00;102354.41;5049546;28;20033;-70
2024/01/13 08:04:43;;;;;;;31.42;18.27;;;;;;;1.87;100.00;102328.75;5049083;28;20049;-70
2024/01/13 08:07:09;;;;;;;32.15;16.30;;;;;;;1.97;100.00;102325.38;5049438;28;20036;-70
2024/01/13 08:09:34;;;;;;;33.13;17.48;;;;;;;1.94;100.00;102312.44;5049351;28;20078;-70
2024/01/13 08:11:59;;;;;;;32.63;19.00;;;;;;;1.95;100.00;102322.00;5048914;28;20025;-70
2024/01/13 08:14:25;;;;;;;34.67;19.25;;;;;;;1.96;100.00;102321.09;5048459;28;20041;-70
2024/01/13 08:16:50;;;;;;;32.65;18.23;;;;;;;1.96;100.00;102326.34;5048540;28;20097;-70
2024/01/13 08:19:15;;;;;;;31.90;18.02;;;;;;;1.96;100.00;102320.22;5047097;28;20067;-70
2024/01/13 08:21:41;;;;;;;31.95;19.17;;;;;;;1.93;100.00;102302.84;5048750;28;20075;-69
2024/01/13 08:24:08;;;;;;;33.95;19.45;;;;;;;1.95;100.00;102311.50;5047556;28;20040;-70
2024/01/13 08:26:35;;;;;;;34.35;18.90;;;;;;;1.98;100.00;102323.59;5049224;28;20033;-69
2024/01/13 08:29:00;;;;;;;32.40;18.50;;;;;;;2.00;100.00;102326.13;5049111;28;20504;-70
2024/01/13 08:31:26;;;;;;;34.25;17.67;;;;;;;2.00;100.00;102321.72;5048983;28;20029;-70
2024/01/13 08:33:51;;;;;;;36.97;19.05;;;;;;;2.02;100.00;102313.69;5049235;28;20033;-70
2024/01/13 08:36:17;;;;;;;36.00;19.23;;;;;;;2.03;100.00;102312.75;5049117;28;20056;-70
2024/01/13 08:38:44;;;;;;;34.15;18.75;;;;;;;1.98;100.00;102298.13;5048880;28;20064;-71
2024/01/13 08:41:12;;;;;;;35.03;19.00;;;;;;;2.02;100.00;102311.94;5049115;28;20041;-71
2024/01/13 08:43:38;;;;;;;35.25;20.20;;;;;;;2.07;100.00;102335.28;5048949;28;20456;-71
2024/01/13 08:46:03;;;;;;;33.95;18.23;;;;;;;2.09;100.00;102314.97;5049075;28;20036;-71
2024/01/13 08:48:28;;;;;;;30.70;17.55;;;;;;;2.09;100.00;102318.44;5049080;28;20028;-71
2024/01/13 08:50:54;;;;;;;33.40;17.88;;;;;;;2.10;100.00;102325.41;5047826;28;20560;-71
2024/01/13 08:53:19;;;;;;;33.95;19.13;;;;;;;2.12;100.00;102320.88;5049898;28;20506;-70
2024/01/13 08:55:45;;;;;;;34.33;19.02;;;;;;;2.12;100.00;102326.16;5051607;28;20094;-71
2024/01/13 08:58:10;;;;;;;37.25;19.75;;;;;;;2.14;100.00;102320.75;5052465;28;20037;-71
2024/01/13 09:00:35;;;;;;;36.33;19.48;;;;;;;2.14;100.00;102318.13;5051999;28;20116;-71
2024/01/13 09:03:01;;;;;;;36.15;18.42;;;;;;;2.11;100.00;102310.44;5049581;28;20043;-70
2024/01/13 09:05:27;;;;;;;37.22;17.65;;;;;;;2.12;100.00;102312.97;5048905;28;20639;-71
2024/01/13 09:07:53;;;;;;;39.10;19.50;;;;;;;2.17;100.00;102317.91;5050759;28;20024;-70
2024/01/13 09:10:19;;;;;;;36.80;18.60;;;;;;;2.14;100.00;102315.50;5050225;28;20159;-71
2024/01/13 09:12:44;;;;;;;33.78;18.95;;;;;;;2.21;100.00;102321.19;5050908;28;20080;-70
2024/01/13 09:15:11;;;;;;;36.97;19.42;;;;;;;2.22;100.00;102322.88;5049830;28;20037;-71
2024/01/13 09:17:37;;;;;;;30.27;17.02;;;;;;;2.25;100.00;102325.28;5050425;28;20083;-70
2024/01/13 09:20:03;;;;;;;35.92;19.27;;;;;;;2.23;100.00;102316.63;5049270;28;20033;-69
2024/01/13 09:22:29;;;;;;;34.47;18.00;;;;;;;2.25;100.00;102317.38;5049612;28;20515;-70
2024/01/13 09:24:54;;;;;;;32.15;20.02;;;;;;;2.26;100.00;102314.66;5049124;28;20043;-69
2024/01/13 09:27:20;;;;;;;35.38;19.58;;;;;;;2.27;100.00;102312.84;5048856;28;20032;-70
2024/01/13 09:29:45;;;;;;;31.58;19.23;;;;;;;2.18;100.00;102304.66;5047406;28;20450;-71
2024/01/13 09:32:12;;;;;;;36.65;18.02;;;;;;;2.28;100.00;102318.03;5049315;28;20446;-71
2024/01/13 09:34:37;;;;;;;33.60;19.85;;;;;;;2.30;100.00;102315.28;5048343;28;20223;-71
2024/01/13 09:37:03;;;;;;;35.60;18.35;;;;;;;2.31;100.00;102314.34;5048234;28;20145;-71
2024/01/13 09:39:28;;;;;;;37.20;20.17;;;;;;;2.28;100.00;102315.41;5048133;28;20037;-71
2024/01/13 09:41:54;;;;;;;36.30;19.08;;;;;;;2.32;100.00;102316.00;5048848;28;20127;-71
2024/01/13 09:44:24;;;;;;;37.97;18.95;;;;;;;2.32;100.00;102306.31;5048402;28;20028;-71
2024/01/13 09:46:51;;;;;;;39.83;19.77;;;;;;;2.33;100.00;102313.28;5047865;28;20082;-71
2024/01/13 09:49:18;;;;;;;38.15;19.17;;;;;;;2.33;100.00;102296.63;5047766;28;20021;-71
2024/01/13 09:51:45;;;;;;;34.25;16.63;;;;;;;2.31;100.00;102286.22;5049727;28;20021;-71
2024/01/13 09:54:23;;;;;;;38.70;20.52;;;;;;;2.35;100.00;102289.47;5049781;28;20025;-71
2024/01/13 09:56:50;;;;;;;32.72;17.40;;;;;;;2.35;100.00;102282.41;5048619;28;20028;-71
2024/01/13 09:59:16;;;;;;;36.70;17.60;;;;;;;2.36;100.00;102285.91;5047309;28;20029;-71
2024/01/13 10:01:42;;;;;;;34.28;16.60;;;;;;;2.33;100.00;102270.31;5048847;28;20518;-71
2024/01/13 10:04:08;;;;;;;37.92;19.52;;;;;;;2.35;100.00;102284.22;5047880;28;20076;-72
2024/01/13 10:06:35;;;;;;;32.78;16.73;;;;;;;2.36;100.00;102283.28;5048717;28;20575;-71
2024/01/13 10:09:02;;;;;;;32.92;19.13;;;;;;;2.37;100.00;102284.94;5049472;28;20025;-71
2024/01/13 10:11:30;;;;;;;35.40;16.75;;;;;;;2.36;100.00;102294.63;5049003;28;20029;-71
2024/01/13 10:14:03;;;;;;;33.55;17.67;;;;;;;2.37;100.00;102291.06;5049262;28;20458;-70
2024/01/13 10:16:30;;;;;;;32.80;17.08;;;;;;;2.38;100.00;102276.97;5049275;28;20120;-70
2024/01/13 10:18:58;;;;;;;34.53;20.05;;;;;;;2.39;100.00;102278.63;5049427;28;20025;-70
2024/01/13 10:21:23;;;;;;;38.63;17.30;;;;;;;2.42;100.00;102270.50;5049107;28;20365;-70
2024/01/13 10:23:49;;;;;;;31.05;16.88;;;;;;;2.38;100.00;102262.91;5049455;28;20111;-70
2024/01/13 10:26:15;;;;;;;35.47;19.10;;;;;;;2.40;100.00;102261.03;5048750;28;20029;-70
2024/01/13 10:28:41;;;;;;;34.35;19.02;;;;;;;2.45;100.00;102272.09;5049175;28;20040;-70
2024/01/13 10:31:06;;;;;;;32.30;15.60;;;;;;;2.46;100.00;102265.03;5049206;28;20021;-70
2024/01/13 10:33:32;;;;;;;33.53;19.20;;;;;;;2.47;100.00;102262.28;5048981;28;20415;-70
2024/01/13 10:35:57;;;;;;;35.30;18.27;;;;;;;2.49;100.00;102264.78;5048840;28;20120;-70
2024/01/13 10:38:23;;;;;;;30.33;16.13;;;;;;;2.50;100.00;102264.69;5047395;28;20483;-70
2024/01/13 10:40:49;;;;;;;34.20;17.15;;;;;;;2.51;100.00;102262.91;5047413;28;20059;-70
2024/01/13 10:43:17;;;;;;;33.97;17.83;;;;;;;2.49;100.00;102256.91;5049050;28;20112;-70
2024/01/13 10:45:49;;;;;;;31.55;15.27;;;;;;;2.52;100.00;102254.06;5048507;28;20111;-69
2024/01/13 10:48:30;;;;;;;33.78;18.58;;;;;;;2.53;100.00;102253.09;5048909;28;20021;-70
2024/01/13 10:50:56;;;;;;;31.67;18.58;;;;;;;2.54;100.00;102260.91;5048813;28;20460;-70
2024/01/13 10:53:28;;;;;;;30.67;18.55;;;;;;;2.54;100.00;102246.88;5048899;28;20037;-70
2024/01/13 10:55:54;;;;;;;;;;;;;;;2.58;100.00;102237.81;5049006;28;20039;-69
2024/01/13 10:58:20;;;;;;;25.85;15.35;;;;;;;2.54;100.00;102238.97;5048701;28;19920;-69
2024/01/13 11:00:45;;;;;;;30.05;15.75;;;;;;;2.58;100.00;102236.03;5048590;28;20111;-69
2024/01/13 11:03:15;;;;;;;30.95;14.05;;;;;;;2.57;100.00;102220.34;5048643;28;20050;-70
2024/01/13 11:05:40;;;;;;;29.27;15.02;;;;;;;2.59;100.00;102226.31;5048605;28;20491;-69